Au Train, Michigan
Current Conditions -  °F | °C
As of 3:37 AM on Friday 24 Oct 2014 (Local Time) from KSAW Reporting Station
Haze Haze  
Wind Chill: 44°   Ceiling: 300
Heat Index: 44°   Visibility: 0.75mi
Dew Point: 43°   Wind: 3mph
Humidity: 96%   Direction: 220°SW
Pressure: 29.98"   Gusts: NA
Location:  46.43°N, 86.84°W
Report Text: KSAW 240737Z AUTO 22003KT 3/4SM BR OVC003 07/06 A2998 RMK AO2 T00660060
Loading
Personal Weather Stations






























Interactive Weather Map
Tropical Storm Tracking
New forecast layout! Learn more

10-Day Weather Forecast

Advertisements
Track Severe Weather on mobile